Carmel, IN (46032)

2:47 PM EDT on August 28, 2015 (GMT -0400)
Johnsons Block | | Change Station
CLOSE
Current Station
Personal Weather Station
Location: Carmel, IN
Elevation: 853 ft
Nearby Weather Stations

Elev 853 ft 39.98 °N, 86.13 °W | Updated 15 minutes ago

Partly Cloudy
Partly Cloudy
79.3 °F
Feels Like 80 °F
N
2.2
Wind Variable Wind from NNE

Today
High -- | Low -- °F
--% Chance of Precip.
Yesterday
High -- | Low -- °F
Precip. -- in
7:08 AM 8:22 PM
Waxing Gibbous, 98% visible
Pressure 30.16 in
Visibility 10.0 miles
Clouds Scattered Clouds 4700 ft
Heat Index 80 °F
Dew Point 57 °F
Humidity 47%
Rainfall 0.00 in
Snow Depth Not available.
UV 7 out of 12
Pollen 10.50 out of 12
Air Quality Not available.
Flu Activity Not available.
METAR KTYQ 281835Z AUTO 15005KT 10SM SCT047 25/13 A3016 RMK AO2 T02480129
Pressure 30.16 in
Visibility 10.0 miles
Clouds Scattered Clouds 4700 ft
Heat Index 80 °F
Dew Point 57 °F
Humidity 47%
Rainfall 0.00 in
Snow Depth Not available.
UV 7 out of 12
Pollen 10.50 out of 12
Air Quality Not available.
Flu Activity Not available.
METAR KTYQ 281835Z AUTO 15005KT 10SM SCT047 25/13 A3016 RMK AO2 T02480129

10-Day Weather Forecast

×

Almanac

Astronomy

Aug. 28, 2015 Rise Set
Actual Time
Civil Twilight
Nautical Twilight
Astronomical Twilight
Moon
Length of Visible Light
Length of Day
Tomorrow will be .
, % of the Moon is Illuminated

Today's Extremes

State Highs State Lows

Community

WunderPhotos

Upload Photos

1,850,453 photos uploaded!

WunderBlogs® & News

Nearby

Air Quality

  Air Quality AQ Index Pollutant
Not available.

Snow Depth

Station Depth Elevation

Earthquake Activity

City Distance Mag. Time & Date
Minimum magnitude displayed is 2.5.

Coastal Water Temperatures

Place Temperature

Stations

Nearby Weather Stations

Station Location Temp. Windchill Dew Point Humidity Wind Precip. Elev Updated Type